Decoded Metar for KTCL (TUSCALOOSA in AL, USA) (IATA:TCL) | Meteo·Mobile Aviation Weather
aviador You're here:

KTCL Decoded Metar

TUSCALOOSA in AL, USA
Report Time2019-02-17 05:53:00
UTC Time2019-02-17 06:24:28
Flight Rules vfr VFR
Wind090° at 03 kt
W.Decomp.*RWY 11: 2.8 kt HW 1 kt LCW
RWY 04: 1.9 kt HW 2.3 kt RCW
W.Rank090° ranks 25
Current wind is below 090° avg. (5.2)
Visibility9999 m
Phenomena:N/A
Clouds:Overcast 110 Hf
Expected CloudBase > 1,200 ft AGL from Temp-Dew spread
Ceiling11,000 ft
Temp10°C (ISA -5)
Dew Point07°C (82% RH)
AAT8.2°C
QNH1010 hPa
Density Alt-161 ft
Elevation161 ft
Report Wrong Elevation
Raw Report
METAR KTCL 170553Z AUTO 09003KT 9SM OVC110 10/07 A2982 RMK AO2 RAB14E27
SLP098 P0000 60000 T01000067 10106 20089 401890089 56010=

Extra information for KTCL:More info

Metar Taf Metar & Taf Last 4 Metars F.Rules Stats Wind Profile Meteogram Temp Stats Airport Information Weather charts Add Link Nearby VenuesMetar ALERT Operation Metar Decoded Social comments

AIRNAV info for KTCL